Time;durP1;ratioP1;P1;durP2;ratioP2;P2;SDS_P1;SDS_P2;PMS_P1;PMS_P2;Temp;Humidity;BMP_temperature;BMP_pressure;BME280_temperature;BME280_humidity;BME280_pressure;Samples;Min_cycle;Max_cycle;Signal;HPM_P1;HPM_P2
2022/09/16 00:00:01;;;;;;;15.48;2.28;;;;;;;;;;4932839;28;20038;-71
2022/09/16 00:02:27;;;;;;;12.45;2.00;;;;;;;;;;4932443;28;20524;-71
2022/09/16 00:04:53;;;;;;;12.63;2.00;;;;;;;;;;4931573;28;20036;-71
2022/09/16 00:07:19;;;;;;;16.92;2.20;;;;;;;;;;4931481;28;20023;-71
2022/09/16 00:09:45;;;;;;;10.05;1.95;;;;;;;;;;4931816;28;20023;-71
2022/09/16 00:12:11;;;;;;;14.13;2.30;;;;;;;;;;4931949;28;20024;-72
2022/09/16 00:14:37;;;;;;;19.83;4.60;;;;;;;;;;4931620;28;20028;-72
2022/09/16 00:17:03;;;;;;;11.55;2.13;;;;;;;;;;4931314;28;20027;-72
2022/09/16 00:19:29;;;;;;;10.07;2.28;;;;;;;;;;4931630;28;20480;-72
2022/09/16 00:21:55;;;;;;;14.30;2.00;;;;;;;;;;4931851;28;20032;-71
2022/09/16 00:24:21;;;;;;;10.90;3.40;;;;;;;;;;4932099;28;20043;-71
2022/09/16 00:26:47;;;;;;;14.73;3.20;;;;;;;;;;4932469;28;20384;-73
2022/09/16 00:29:13;;;;;;;12.52;2.17;;;;;;;;;;4935572;28;20031;-73
2022/09/16 00:31:39;;;;;;;13.35;2.20;;;;;;;;;;4937690;28;20083;-71
2022/09/16 00:34:05;;;;;;;14.73;2.08;;;;;;;;;;4939144;28;20032;-73
2022/09/16 00:36:31;;;;;;;15.85;2.08;;;;;;;;;;4941025;28;20039;-71
2022/09/16 00:38:57;;;;;;;20.60;2.67;;;;;;;;;;4942552;28;20028;-72
2022/09/16 00:41:24;;;;;;;15.00;2.20;;;;;;;;;;4938895;28;20057;-71
2022/09/16 00:43:54;;;;;;;10.55;2.05;;;;;;;;;;4934622;28;20419;-72
2022/09/16 00:46:22;;;;;;;12.38;2.22;;;;;;;;;;4933362;28;20051;-72
2022/09/16 00:48:49;;;;;;;18.05;2.58;;;;;;;;;;4934474;28;20034;-73
2022/09/16 00:51:15;;;;;;;10.40;1.67;;;;;;;;;;4934749;28;20032;-71
2022/09/16 00:53:48;;;;;;;13.18;1.75;;;;;;;;;;4934466;29;20378;-72
2022/09/16 00:56:16;;;;;;;7.43;1.40;;;;;;;;;;4934371;29;20054;-71
2022/09/16 00:58:44;;;;;;;8.55;1.73;;;;;;;;;;4934486;29;20066;-72
2022/09/16 01:01:10;;;;;;;8.55;1.75;;;;;;;;;;4934509;28;20032;-71
2022/09/16 01:03:45;;;;;;;9.52;1.90;;;;;;;;;;4958294;23;20054;-76
2022/09/16 01:06:12;;;;;;;5.70;1.52;;;;;;;;;;4971230;28;20523;-77
2022/09/16 01:08:39;;;;;;;9.55;1.73;;;;;;;;;;4972092;28;20027;-75
2022/09/16 01:11:05;;;;;;;7.47;1.67;;;;;;;;;;4953288;29;20499;-75
2022/09/16 01:13:31;;;;;;;16.10;2.03;;;;;;;;;;4953312;28;20031;-75
2022/09/16 01:16:08;;;;;;;10.65;2.08;;;;;;;;;;4952995;28;20027;-76
2022/09/16 01:18:48;;;;;;;14.93;2.20;;;;;;;;;;4952049;28;20019;-77
2022/09/16 01:21:16;;;;;;;14.25;2.22;;;;;;;;;;4953076;28;20096;-76
2022/09/16 01:23:58;;;;;;;14.88;2.28;;;;;;;;;;4952876;28;20031;-74
2022/09/16 01:26:24;;;;;;;21.00;1.95;;;;;;;;;;4951889;28;20031;-75
2022/09/16 01:29:08;;;;;;;12.30;1.63;;;;;;;;;;4951669;29;20023;-75
2022/09/16 01:31:42;;;;;;;10.98;2.13;;;;;;;;;;4952000;28;20065;-75
2022/09/16 01:34:08;;;;;;;9.35;2.28;;;;;;;;;;4952911;28;20166;-76
2022/09/16 01:36:49;;;;;;;12.50;3.50;;;;;;;;;;4952712;29;20059;-75
2022/09/16 01:39:18;;;;;;;12.43;2.15;;;;;;;;;;4952784;29;20027;-76
2022/09/16 01:41:55;;;;;;;9.77;1.90;;;;;;;;;;4951882;28;20396;-75
2022/09/16 01:44:27;;;;;;;14.23;2.17;;;;;;;;;;4951293;28;20028;-75
2022/09/16 01:47:12;;;;;;;11.20;1.83;;;;;;;;;;4951358;28;20023;-76
2022/09/16 01:49:43;;;;;;;13.88;2.00;;;;;;;;;;4952701;29;20107;-75
2022/09/16 01:52:09;;;;;;;11.90;2.25;;;;;;;;;;4952700;28;20019;-74
2022/09/16 01:54:42;;;;;;;16.67;2.47;;;;;;;;;;4952728;28;20051;-74
2022/09/16 01:57:15;;;;;;;17.30;2.35;;;;;;;;;;4952471;28;20035;-75
2022/09/16 01:59:44;;;;;;;10.02;1.73;;;;;;;;;;4952806;28;20058;-75
2022/09/16 02:02:16;;;;;;;12.55;2.20;;;;;;;;;;4952612;29;20065;-75
2022/09/16 02:04:45;;;;;;;13.35;2.20;;;;;;;;;;4951079;28;20488;-76
2022/09/16 02:07:12;;;;;;;9.10;2.00;;;;;;;;;;4952520;29;20472;-75
2022/09/16 02:09:40;;;;;;;11.43;2.45;;;;;;;;;;4951402;29;20114;-76
2022/09/16 02:12:09;;;;;;;16.77;2.50;;;;;;;;;;4952519;29;20062;-76
2022/09/16 02:14:37;;;;;;;10.27;2.42;;;;;;;;;;4955935;28;20031;-75
2022/09/16 02:17:09;;;;;;;9.48;1.80;;;;;;;;;;4952141;28;20038;-76
2022/09/16 02:19:56;;;;;;;8.02;2.20;;;;;;;;;;4954871;28;20031;-75
2022/09/16 02:22:29;;;;;;;8.40;2.00;;;;;;;;;;4962055;29;20055;-75
2022/09/16 02:24:55;;;;;;;12.77;2.40;;;;;;;;;;4958359;28;20058;-76
2022/09/16 02:27:22;;;;;;;18.45;2.47;;;;;;;;;;4955860;29;20110;-76
2022/09/16 02:29:53;;;;;;;15.85;2.45;;;;;;;;;;4959122;28;20026;-78
2022/09/16 02:32:21;;;;;;;15.32;2.30;;;;;;;;;;4970924;28;20027;-76
2022/09/16 02:34:49;;;;;;;12.15;1.98;;;;;;;;;;4968079;28;20031;-76
2022/09/16 02:37:21;;;;;;;13.98;2.33;;;;;;;;;;4960381;28;20073;-77
2022/09/16 02:39:49;;;;;;;20.63;2.63;;;;;;;;;;4953305;28;20035;-77
2022/09/16 02:42:15;;;;;;;13.13;2.15;;;;;;;;;;4952705;28;20038;-76
2022/09/16 02:44:42;;;;;;;10.73;2.53;;;;;;;;;;4953844;28;20427;-77
2022/09/16 02:47:13;;;;;;;12.57;2.20;;;;;;;;;;4954628;28;20027;-77
2022/09/16 02:49:50;;;;;;;10.05;2.00;;;;;;;;;;4960714;28;20027;-77
2022/09/16 02:52:20;;;;;;;15.63;2.58;;;;;;;;;;4960853;28;20368;-78
2022/09/16 02:54:55;;;;;;;13.85;2.50;;;;;;;;;;4958542;28;20650;-76
2022/09/16 02:57:21;;;;;;;16.10;2.17;;;;;;;;;;4960874;28;20031;-77
2022/09/16 02:59:48;;;;;;;24.73;2.92;;;;;;;;;;4952541;28;20038;-77
2022/09/16 03:02:14;;;;;;;12.40;2.13;;;;;;;;;;4952110;28;20145;-77
2022/09/16 03:04:40;;;;;;;13.27;2.08;;;;;;;;;;4952264;28;20489;-76
2022/09/16 03:07:07;;;;;;;13.85;2.35;;;;;;;;;;4952356;28;20384;-75
2022/09/16 03:09:34;;;;;;;14.65;2.50;;;;;;;;;;4953542;28;20077;-77
2022/09/16 03:12:21;;;;;;;13.85;1.90;;;;;;;;;;4972183;28;20035;-74
2022/09/16 03:15:05;;;;;;;12.93;1.98;;;;;;;;;;4966841;28;20015;-77
2022/09/16 03:17:50;;;;;;;10.97;1.97;;;;;;;;;;4976127;28;20023;-75
2022/09/16 03:20:22;;;;;;;10.75;1.95;;;;;;;;;;4976423;28;20255;-76
2022/09/16 03:22:48;;;;;;;10.00;1.83;;;;;;;;;;4965228;28;20468;-76
2022/09/16 03:25:14;;;;;;;14.35;2.22;;;;;;;;;;4950333;28;20034;-75
2022/09/16 03:27:51;;;;;;;7.80;1.70;;;;;;;;;;4951223;28;20373;-75
2022/09/16 03:30:17;;;;;;;13.38;2.67;;;;;;;;;;4952327;28;20102;-75
2022/09/16 03:32:45;;;;;;;12.68;2.72;;;;;;;;;;4953292;29;20020;-75
2022/09/16 03:35:13;;;;;;;15.93;2.08;;;;;;;;;;4951795;28;20031;-74
2022/09/16 03:37:40;;;;;;;9.50;1.98;;;;;;;;;;4951336;28;20034;-74
2022/09/16 03:40:11;;;;;;;11.07;2.45;;;;;;;;;;4949942;29;20035;-76
2022/09/16 03:42:41;;;;;;;17.98;2.55;;;;;;;;;;4950826;29;20105;-76
2022/09/16 03:45:09;;;;;;;14.05;2.30;;;;;;;;;;4951280;28;20027;-76
2022/09/16 03:47:35;;;;;;;15.20;1.90;;;;;;;;;;4949832;29;20019;-77
2022/09/16 03:50:02;;;;;;;14.18;1.73;;;;;;;;;;4951415;28;20031;-76
2022/09/16 03:52:28;;;;;;;16.52;2.88;;;;;;;;;;4951640;28;20020;-76
2022/09/16 03:54:54;;;;;;;11.90;2.50;;;;;;;;;;4951413;28;20434;-76
2022/09/16 03:57:20;;;;;;;13.90;2.67;;;;;;;;;;4951270;28;20062;-76
2022/09/16 03:59:46;;;;;;;14.55;3.60;;;;;;;;;;4951374;28;20069;-77
2022/09/16 04:02:12;;;;;;;14.57;2.70;;;;;;;;;;4951411;28;20114;-76
2022/09/16 04:04:38;;;;;;;14.82;2.33;;;;;;;;;;4952116;28;20040;-76
2022/09/16 04:07:04;;;;;;;16.60;2.13;;;;;;;;;;4957658;28;20050;-75
2022/09/16 04:09:30;;;;;;;16.35;2.22;;;;;;;;;;4957401;28;20023;-76
2022/09/16 04:11:56;;;;;;;16.80;3.10;;;;;;;;;;4955568;28;20027;-75
2022/09/16 04:14:21;;;;;;;14.50;1.70;;;;;;;;;;4954986;28;20113;-75
2022/09/16 04:16:47;;;;;;;13.35;2.22;;;;;;;;;;4955440;29;20034;-75
2022/09/16 04:19:13;;;;;;;17.83;2.30;;;;;;;;;;4955236;28;20034;-76
2022/09/16 04:21:40;;;;;;;10.80;1.90;;;;;;;;;;4954291;28;20027;-74
2022/09/16 04:24:06;;;;;;;16.00;2.20;;;;;;;;;;4953187;28;20584;-76
2022/09/16 04:26:32;;;;;;;16.25;1.83;;;;;;;;;;4954546;28;20039;-75
2022/09/16 04:28:58;;;;;;;20.88;2.55;;;;;;;;;;4961043;28;20031;-75
2022/09/16 04:31:24;;;;;;;10.00;2.40;;;;;;;;;;4963648;28;20050;-75
2022/09/16 04:33:50;;;;;;;18.27;2.80;;;;;;;;;;4958043;28;20031;-75
2022/09/16 04:36:17;;;;;;;8.70;1.88;;;;;;;;;;4957678;28;20055;-76
2022/09/16 04:38:44;;;;;;;11.52;2.55;;;;;;;;;;4957216;28;20384;-74
2022/09/16 04:41:17;;;;;;;14.25;2.33;;;;;;;;;;4956635;28;20032;-74
2022/09/16 04:43:43;;;;;;;15.32;2.63;;;;;;;;;;4956976;28;20027;-74
2022/09/16 04:46:10;;;;;;;8.95;1.80;;;;;;;;;;4954136;28;20015;-73
2022/09/16 04:48:36;;;;;;;11.70;2.28;;;;;;;;;;4954730;28;20073;-74
2022/09/16 04:51:05;;;;;;;12.75;2.70;;;;;;;;;;4960482;28;20038;-75
2022/09/16 04:53:32;;;;;;;11.55;2.55;;;;;;;;;;4965999;28;20050;-75
2022/09/16 04:56:08;;;;;;;14.43;1.95;;;;;;;;;;4960748;29;20098;-74
2022/09/16 04:58:35;;;;;;;9.80;2.15;;;;;;;;;;4958631;28;20046;-74
2022/09/16 05:01:05;;;;;;;11.70;2.13;;;;;;;;;;4959449;29;20039;-75
2022/09/16 05:03:31;;;;;;;9.25;1.70;;;;;;;;;;4965302;28;20027;-75
2022/09/16 05:06:04;;;;;;;12.90;1.80;;;;;;;;;;4966342;28;20054;-76
2022/09/16 05:08:32;;;;;;;7.75;1.70;;;;;;;;;;4971187;28;20087;-74
2022/09/16 05:11:01;;;;;;;8.55;1.80;;;;;;;;;;4971415;28;20077;-74
2022/09/16 05:13:27;;;;;;;16.45;2.20;;;;;;;;;;4977000;28;20031;-75
2022/09/16 05:15:53;;;;;;;15.15;2.20;;;;;;;;;;4975201;28;20030;-76
2022/09/16 05:18:19;;;;;;;20.25;2.80;;;;;;;;;;4958497;28;20061;-75
2022/09/16 05:20:45;;;;;;;14.05;2.22;;;;;;;;;;4953667;29;20054;-76
2022/09/16 05:23:11;;;;;;;12.68;2.40;;;;;;;;;;4954366;28;20046;-76
2022/09/16 05:25:37;;;;;;;22.42;2.42;;;;;;;;;;4953564;28;20032;-76
2022/09/16 05:28:03;;;;;;;9.70;1.85;;;;;;;;;;4955238;28;20031;-76
2022/09/16 05:30:29;;;;;;;11.95;2.63;;;;;;;;;;4955864;28;20106;-75
2022/09/16 05:32:55;;;;;;;15.65;2.65;;;;;;;;;;4960794;29;20357;-76
2022/09/16 05:35:21;;;;;;;11.65;2.00;;;;;;;;;;4974326;28;20073;-75
2022/09/16 05:37:49;;;;;;;16.42;2.25;;;;;;;;;;4973553;28;20035;-76
2022/09/16 05:40:15;;;;;;;15.40;2.97;;;;;;;;;;4970850;29;20046;-74
2022/09/16 05:42:41;;;;;;;16.23;2.53;;;;;;;;;;4971554;28;20091;-75
2022/09/16 05:45:07;;;;;;;10.07;1.88;;;;;;;;;;4967714;28;20069;-75
2022/09/16 05:47:33;;;;;;;20.58;2.70;;;;;;;;;;4953366;29;20026;-76
2022/09/16 05:49:59;;;;;;;11.60;1.92;;;;;;;;;;4956243;28;20091;-77
2022/09/16 05:52:26;;;;;;;15.10;2.45;;;;;;;;;;4953001;28;20484;-77
2022/09/16 05:54:52;;;;;;;8.55;1.67;;;;;;;;;;4953046;28;20100;-76
2022/09/16 05:57:18;;;;;;;13.90;1.95;;;;;;;;;;4952930;28;20031;-75
2022/09/16 05:59:44;;;;;;;14.68;2.13;;;;;;;;;;4952878;28;20038;-75
2022/09/16 06:02:11;;;;;;;10.60;1.90;;;;;;;;;;4953219;28;20031;-74
2022/09/16 06:04:37;;;;;;;17.02;2.22;;;;;;;;;;4952653;28;20050;-76
2022/09/16 06:07:04;;;;;;;15.10;1.88;;;;;;;;;;4952848;28;20023;-76
2022/09/16 06:09:30;;;;;;;20.73;2.22;;;;;;;;;;4953264;28;20100;-76
2022/09/16 06:11:56;;;;;;;12.27;2.15;;;;;;;;;;4953722;28;20030;-76
2022/09/16 06:14:22;;;;;;;16.42;2.03;;;;;;;;;;4953473;28;20039;-77
2022/09/16 06:16:48;;;;;;;14.45;2.28;;;;;;;;;;4957181;28;20053;-79
2022/09/16 06:19:16;;;;;;;14.65;2.55;;;;;;;;;;4957241;28;20480;-77
2022/09/16 06:21:42;;;;;;;18.35;2.72;;;;;;;;;;4951610;29;20039;-75
2022/09/16 06:24:09;;;;;;;17.42;2.53;;;;;;;;;;4952716;28;20019;-76
2022/09/16 06:26:36;;;;;;;19.60;2.90;;;;;;;;;;4952306;28;20055;-76
2022/09/16 06:29:02;;;;;;;13.77;2.00;;;;;;;;;;4951991;29;20027;-76
2022/09/16 06:31:28;;;;;;;15.00;2.55;;;;;;;;;;4953704;28;20595;-77
2022/09/16 06:33:54;;;;;;;12.35;1.80;;;;;;;;;;4952791;28;20031;-77
2022/09/16 06:36:21;;;;;;;25.13;2.65;;;;;;;;;;4953096;28;20143;-75
2022/09/16 06:38:47;;;;;;;12.60;2.35;;;;;;;;;;4952666;29;20031;-77
2022/09/16 06:41:14;;;;;;;17.17;2.10;;;;;;;;;;4953290;28;20410;-76
2022/09/16 06:43:40;;;;;;;13.40;2.22;;;;;;;;;;4952864;28;20038;-77
2022/09/16 06:46:15;;;;;;;15.73;2.25;;;;;;;;;;4952376;28;20031;-77
2022/09/16 06:48:41;;;;;;;16.10;2.25;;;;;;;;;;4953259;28;20034;-75
2022/09/16 06:51:09;;;;;;;16.67;2.63;;;;;;;;;;4952773;28;20431;-76
2022/09/16 06:53:36;;;;;;;12.50;2.00;;;;;;;;;;4952921;28;20479;-77
2022/09/16 06:56:06;;;;;;;18.27;2.05;;;;;;;;;;4952589;28;20051;-75
2022/09/16 06:58:32;;;;;;;12.93;2.33;;;;;;;;;;4953205;29;20659;-77
2022/09/16 07:00:59;;;;;;;22.75;2.75;;;;;;;;;;4956110;29;20054;-76
2022/09/16 07:03:25;;;;;;;15.82;2.25;;;;;;;;;;4956212;28;20031;-75
2022/09/16 07:05:57;;;;;;;16.95;2.58;;;;;;;;;;4961304;23;20043;-75
2022/09/16 07:08:24;;;;;;;17.95;1.90;;;;;;;;;;4952963;29;20023;-75
2022/09/16 07:11:00;;;;;;;23.08;2.25;;;;;;;;;;4955273;29;20019;-71
2022/09/16 07:13:26;;;;;;;20.05;3.00;;;;;;;;;;4951024;29;20028;-70
2022/09/16 07:15:52;;;;;;;11.90;2.20;;;;;;;;;;4949618;29;20031;-71
2022/09/16 07:18:19;;;;;;;19.30;2.10;;;;;;;;;;4951374;28;20318;-71
2022/09/16 07:20:45;;;;;;;14.63;2.05;;;;;;;;;;4951577;29;20485;-70
2022/09/16 07:23:11;;;;;;;20.08;2.72;;;;;;;;;;4951436;28;20058;-72
2022/09/16 07:25:36;;;;;;;14.20;2.72;;;;;;;;;;4953209;28;20035;-70
2022/09/16 07:28:03;;;;;;;17.05;2.40;;;;;;;;;;4954941;29;20031;-70
2022/09/16 07:30:29;;;;;;;17.23;2.50;;;;;;;;;;4951966;28;20434;-71
2022/09/16 07:32:56;;;;;;;16.20;2.17;;;;;;;;;;4952405;28;20020;-72
2022/09/16 07:35:22;;;;;;;16.35;2.40;;;;;;;;;;4951126;28;20539;-75
2022/09/16 07:37:47;;;;;;;12.93;2.20;;;;;;;;;;4993907;28;20109;-74
2022/09/16 07:40:13;;;;;;;22.05;2.60;;;;;;;;;;5034432;28;20025;-72
2022/09/16 07:42:41;;;;;;;14.65;2.08;;;;;;;;;;5035949;28;20036;-72
2022/09/16 07:45:07;;;;;;;18.05;2.55;;;;;;;;;;5035847;28;20026;-72
2022/09/16 07:47:33;;;;;;;14.63;2.15;;;;;;;;;;5036161;28;20062;-72
2022/09/16 07:49:59;;;;;;;21.08;2.97;;;;;;;;;;5019254;28;20049;-73
2022/09/16 07:52:28;;;;;;;16.77;2.08;;;;;;;;;;5037073;28;20486;-72
2022/09/16 07:54:54;;;;;;;13.77;2.20;;;;;;;;;;5018481;28;20027;-71
2022/09/16 07:57:20;;;;;;;18.38;2.28;;;;;;;;;;4935553;28;20111;-72
2022/09/16 07:59:47;;;;;;;19.05;2.38;;;;;;;;;;4936492;28;20055;-72
2022/09/16 08:02:13;;;;;;;20.23;3.10;;;;;;;;;;4935992;28;20117;-71
2022/09/16 08:04:39;;;;;;;23.77;2.85;;;;;;;;;;5004887;28;20061;-72
2022/09/16 08:07:05;;;;;;;24.45;2.88;;;;;;;;;;5036817;28;20029;-72
2022/09/16 08:09:31;;;;;;;18.30;3.08;;;;;;;;;;5036727;28;20025;-74
2022/09/16 08:11:58;;;;;;;15.60;2.25;;;;;;;;;;5022899;28;20163;-73
2022/09/16 08:14:24;;;;;;;18.35;2.05;;;;;;;;;;5038142;28;20534;-72
2022/09/16 08:16:50;;;;;;;22.58;2.60;;;;;;;;;;5035129;28;20026;-71
2022/09/16 08:19:16;;;;;;;12.95;1.90;;;;;;;;;;5038952;28;20026;-72
2022/09/16 08:21:42;;;;;;;16.60;2.53;;;;;;;;;;5023565;28;20463;-73
2022/09/16 08:24:08;;;;;;;20.17;2.47;;;;;;;;;;5020042;28;20133;-72
2022/09/16 08:26:34;;;;;;;17.73;2.50;;;;;;;;;;5037389;28;20017;-72
2022/09/16 08:29:01;;;;;;;17.77;2.83;;;;;;;;;;5017842;28;20025;-73
2022/09/16 08:31:27;;;;;;;20.80;3.08;;;;;;;;;;5035387;28;20021;-72
2022/09/16 08:33:53;;;;;;;21.77;2.38;;;;;;;;;;5037169;28;20029;-74
2022/09/16 08:36:20;;;;;;;15.65;2.70;;;;;;;;;;5017752;28;20026;-75
2022/09/16 08:38:47;;;;;;;18.83;2.38;;;;;;;;;;5036117;28;20105;-73
2022/09/16 08:41:31;;;;;;;20.88;2.85;;;;;;;;;;5018232;28;20097;-74
2022/09/16 08:44:09;;;;;;;23.02;4.20;;;;;;;;;;5035045;28;20045;-74
2022/09/16 08:46:42;;;;;;;18.52;2.60;;;;;;;;;;5035450;28;20029;-77
2022/09/16 08:49:14;;;;;;;11.98;1.88;;;;;;;;;;5035856;28;20136;-75
2022/09/16 08:51:40;;;;;;;15.25;2.30;;;;;;;;;;5037829;28;20017;-74
2022/09/16 08:54:10;;;;;;;18.90;2.20;;;;;;;;;;5035752;28;20060;-75
2022/09/16 08:56:37;;;;;;;17.75;2.63;;;;;;;;;;5034923;28;20022;-75
2022/09/16 08:59:09;;;;;;;16.02;2.72;;;;;;;;;;5034829;28;20026;-76
2022/09/16 09:01:34;;;;;;;13.70;2.60;;;;;;;;;;5034786;28;20087;-75
2022/09/16 09:04:01;;;;;;;12.57;1.98;;;;;;;;;;5034709;28;20025;-75
2022/09/16 09:06:40;;;;;;;16.20;2.75;;;;;;;;;;5034971;28;20029;-72
2022/09/16 09:09:06;;;;;;;11.85;2.17;;;;;;;;;;5017081;28;20028;-73
2022/09/16 09:11:32;;;;;;;20.38;2.65;;;;;;;;;;5034531;28;20022;-72
2022/09/16 09:14:16;;;;;;;14.63;2.38;;;;;;;;;;5036292;28;20036;-71
2022/09/16 09:16:55;;;;;;;13.90;2.80;;;;;;;;;;5040375;28;20036;-72
2022/09/16 09:19:24;;;;;;;16.55;2.33;;;;;;;;;;5042876;28;20025;-74
2022/09/16 09:22:13;;;;;;;10.15;1.70;;;;;;;;;;5041821;28;20089;-73
2022/09/16 09:24:47;;;;;;;12.70;2.28;;;;;;;;;;5044204;28;20030;-73
2022/09/16 09:27:32;;;;;;;15.27;2.50;;;;;;;;;;5054758;28;20476;-77
2022/09/16 09:30:07;;;;;;;23.35;3.45;;;;;;;;;;5041547;28;20018;-75
2022/09/16 09:32:50;;;;;;;14.85;2.50;;;;;;;;;;5056636;28;20067;-75
2022/09/16 09:35:35;;;;;;;8.75;2.00;;;;;;;;;;5056667;28;20026;-73
2022/09/16 09:38:01;;;;;;;;;;;;;;;;;;5056362;28;20017;-77
2022/09/16 09:40:39;;;;;;;9.40;1.90;;;;;;;;;;5057246;28;19916;-73
2022/09/16 09:43:16;;;;;;;10.20;1.88;;;;;;;;;;5056835;28;20022;-71
2022/09/16 09:46:01;;;;;;;6.68;1.90;;;;;;;;;;5052714;28;20029;-72
2022/09/16 09:48:35;;;;;;;9.50;1.75;;;;;;;;;;5054392;28;20024;-72
2022/09/16 09:51:04;;;;;;;10.15;2.00;;;;;;;;;;5016078;28;20030;-72
2022/09/16 09:53:40;;;;;;;8.82;2.30;;;;;;;;;;5033530;28;20022;-73
2022/09/16 09:56:13;;;;;;;17.38;2.10;;;;;;;;;;5033620;28;20026;-73
2022/09/16 09:58:43;;;;;;;17.92;2.42;;;;;;;;;;5017874;28;20021;-73
2022/09/16 10:01:10;;;;;;;17.40;2.33;;;;;;;;;;5017152;28;20034;-74
2022/09/16 10:03:37;;;;;;;15.35;2.10;;;;;;;;;;5015382;28;20111;-70
2022/09/16 10:06:03;;;;;;;23.67;2.72;;;;;;;;;;5032815;28;20037;-73
2022/09/16 10:08:38;;;;;;;17.05;3.45;;;;;;;;;;5033179;28;20097;-73
2022/09/16 10:11:14;;;;;;;23.25;3.90;;;;;;;;;;5033544;28;20030;-72
2022/09/16 10:13:47;;;;;;;10.25;2.15;;;;;;;;;;5033661;28;20072;-72
2022/09/16 10:16:14;;;;;;;14.25;2.40;;;;;;;;;;5018368;28;20025;-72
2022/09/16 10:18:40;;;;;;;18.05;2.40;;;;;;;;;;5033974;28;20025;-73
2022/09/16 10:21:07;;;;;;;18.58;2.78;;;;;;;;;;5034731;28;20036;-72
2022/09/16 10:23:34;;;;;;;20.83;2.10;;;;;;;;;;5034259;28;20085;-73
2022/09/16 10:26:20;;;;;;;15.57;2.78;;;;;;;;;;5033908;28;20032;-71
2022/09/16 10:28:56;;;;;;;19.65;2.00;;;;;;;;;;5033770;28;20026;-73
2022/09/16 10:31:24;;;;;;;18.02;3.55;;;;;;;;;;5035754;28;20021;-71
2022/09/16 10:33:50;;;;;;;22.67;2.53;;;;;;;;;;5038712;28;20033;-72
2022/09/16 10:36:25;;;;;;;18.42;2.60;;;;;;;;;;5039216;28;20057;-72
2022/09/16 10:38:58;;;;;;;17.00;2.55;;;;;;;;;;5033536;28;20421;-72
2022/09/16 10:41:25;;;;;;;12.23;2.40;;;;;;;;;;5033135;28;20044;-72
2022/09/16 10:43:53;;;;;;;13.02;2.20;;;;;;;;;;5035011;28;20079;-72
2022/09/16 10:46:19;;;;;;;13.80;2.05;;;;;;;;;;5037286;28;20049;-73
2022/09/16 10:48:45;;;;;;;13.63;2.42;;;;;;;;;;5015305;28;20024;-73
2022/09/16 10:51:25;;;;;;;8.75;2.00;;;;;;;;;;5035754;28;20433;-73
2022/09/16 10:53:53;;;;;;;12.50;2.33;;;;;;;;;;5032780;28;20475;-72
2022/09/16 10:56:21;;;;;;;7.55;1.75;;;;;;;;;;5036034;28;20025;-73
2022/09/16 10:58:47;;;;;;;14.18;2.40;;;;;;;;;;5032507;28;20025;-72
2022/09/16 11:01:21;;;;;;;17.95;2.17;;;;;;;;;;5032307;28;20025;-72
2022/09/16 11:04:06;;;;;;;14.48;2.15;;;;;;;;;;5034453;28;20017;-71
2022/09/16 11:06:38;;;;;;;16.00;2.58;;;;;;;;;;5014394;28;20524;-70
2022/09/16 11:09:07;;;;;;;21.80;2.60;;;;;;;;;;5032573;28;20099;-72
2022/09/16 11:11:36;;;;;;;19.10;2.13;;;;;;;;;;5015655;28;20033;-71
2022/09/16 11:14:05;;;;;;;11.80;2.20;;;;;;;;;;5038247;28;20048;-72
2022/09/16 11:16:48;;;;;;;16.25;2.90;;;;;;;;;;5021954;28;20033;-73
2022/09/16 11:19:27;;;;;;;19.38;2.75;;;;;;;;;;5024950;28;20022;-73
2022/09/16 11:22:12;;;;;;;15.25;2.10;;;;;;;;;;5043554;28;20056;-72
2022/09/16 11:24:53;;;;;;;13.85;2.47;;;;;;;;;;5044924;28;20052;-71
2022/09/16 11:27:28;;;;;;;16.60;2.05;;;;;;;;;;5034314;28;20033;-73
2022/09/16 11:29:54;;;;;;;;;;;;;;;;;;5049698;28;20101;-70
2022/09/16 11:32:40;;;;;;;14.35;2.33;;;;;;;;;;5024427;28;19926;-72
2022/09/16 11:35:22;;;;;;;20.23;2.85;;;;;;;;;;4955710;28;20092;-71
2022/09/16 11:38:06;;;;;;;13.88;2.15;;;;;;;;;;4951973;28;20035;-71
2022/09/16 11:40:47;;;;;;;13.10;2.08;;;;;;;;;;4961261;28;20032;-71
2022/09/16 11:43:32;;;;;;;9.95;1.98;;;;;;;;;;4951671;28;20084;-72
2022/09/16 11:46:22;;;;;;;10.90;1.75;;;;;;;;;;4951226;28;20552;-73
2022/09/16 11:48:54;;;;;;;13.15;2.25;;;;;;;;;;4953847;28;20031;-71
2022/09/16 11:51:39;;;;;;;9.10;2.15;;;;;;;;;;4960547;28;20034;-71
2022/09/16 11:54:25;;;;;;;13.27;2.00;;;;;;;;;;4966511;28;20081;-71
2022/09/16 11:56:55;;;;;;;10.95;2.05;;;;;;;;;;4966325;29;20059;-71
2022/09/16 11:59:25;;;;;;;11.00;2.25;;;;;;;;;;4970631;28;20048;-72
2022/09/16 12:01:54;;;;;;;15.15;2.88;;;;;;;;;;4963255;28;20027;-70
2022/09/16 12:04:25;;;;;;;11.85;2.10;;;;;;;;;;4950589;28;20416;-70
2022/09/16 12:07:02;;;;;;;15.50;2.33;;;;;;;;;;4951679;28;20023;-72
2022/09/16 12:09:36;;;;;;;17.85;2.63;;;;;;;;;;4950302;28;20019;-72
2022/09/16 12:12:10;;;;;;;13.70;2.97;;;;;;;;;;4951443;28;20106;-72
2022/09/16 12:14:49;;;;;;;20.40;2.97;;;;;;;;;;4950477;28;20069;-71
2022/09/16 12:17:18;;;;;;;15.63;2.67;;;;;;;;;;4950549;28;20027;-75
2022/09/16 12:19:44;;;;;;;17.13;2.78;;;;;;;;;;4955380;28;20031;-75
2022/09/16 12:22:15;;;;;;;18.83;3.10;;;;;;;;;;4951020;28;20039;-74
2022/09/16 12:24:44;;;;;;;22.13;2.70;;;;;;;;;;4951391;28;20100;-72
2022/09/16 12:27:28;;;;;;;21.48;2.55;;;;;;;;;;4954608;28;20027;-73
2022/09/16 12:30:17;;;;;;;11.88;1.70;;;;;;;;;;4954327;28;20393;-74
2022/09/16 12:32:43;;;;;;;10.23;2.17;;;;;;;;;;4956373;28;20370;-73
2022/09/16 12:35:15;;;;;;;10.05;2.05;;;;;;;;;;4956261;28;20114;-76
2022/09/16 12:37:44;;;;;;;9.52;1.85;;;;;;;;;;4960683;28;20388;-77
2022/09/16 12:40:16;;;;;;;10.20;1.77;;;;;;;;;;4957332;28;20035;-76
2022/09/16 12:42:47;;;;;;;10.43;2.90;;;;;;;;;;4954401;28;20027;-72
2022/09/16 12:45:32;;;;;;;9.02;2.35;;;;;;;;;;4954501;28;20042;-73
2022/09/16 12:47:58;;;;;;;;;;;;;;;;;;4954612;28;20219;-73
2022/09/16 12:50:37;;;;;;;10.80;2.13;;;;;;;;;;4954138;28;20373;-73
2022/09/16 12:53:09;;;;;;;8.05;1.95;;;;;;;;;;4953959;28;20046;-74
2022/09/16 12:55:52;;;;;;;14.02;2.00;;;;;;;;;;4953667;28;20085;-75
2022/09/16 12:58:33;;;;;;;13.80;2.15;;;;;;;;;;4954074;28;20060;-73
2022/09/16 13:01:14;;;;;;;13.02;2.50;;;;;;;;;;4956413;28;20024;-74
2022/09/16 13:03:43;;;;;;;14.02;1.98;;;;;;;;;;4954370;28;20031;-75
2022/09/16 13:06:20;;;;;;;11.20;1.85;;;;;;;;;;4955020;28;20169;-76
2022/09/16 13:08:46;;;;;;;9.80;1.48;;;;;;;;;;4955021;28;20490;-75
2022/09/16 13:11:20;;;;;;;8.43;1.92;;;;;;;;;;4955548;28;20110;-75
2022/09/16 13:13:48;;;;;;;11.45;2.00;;;;;;;;;;4953818;28;20041;-74
2022/09/16 13:16:14;;;;;;;9.95;1.65;;;;;;;;;;4961490;28;20027;-76
2022/09/16 13:18:44;;;;;;;10.60;1.63;;;;;;;;;;4954910;28;20412;-76
2022/09/16 13:21:16;;;;;;;10.95;1.80;;;;;;;;;;4953352;28;20103;-72
2022/09/16 13:23:44;;;;;;;13.43;1.60;;;;;;;;;;4953439;28;20054;-73
2022/09/16 13:26:10;;;;;;;9.18;1.70;;;;;;;;;;4953407;28;20035;-72
2022/09/16 13:28:38;;;;;;;11.10;1.55;;;;;;;;;;4954220;28;20076;-71
2022/09/16 13:31:11;;;;;;;12.65;1.80;;;;;;;;;;4953588;28;20414;-72
2022/09/16 13:33:38;;;;;;;15.88;2.17;;;;;;;;;;4953315;28;20028;-73
2022/09/16 13:36:13;;;;;;;17.65;2.33;;;;;;;;;;4953111;28;20088;-74
2022/09/16 13:38:40;;;;;;;14.88;2.28;;;;;;;;;;4951166;28;20039;-72
2022/09/16 13:41:09;;;;;;;17.65;2.65;;;;;;;;;;4950714;28;20028;-72
2022/09/16 13:43:41;;;;;;;12.68;2.47;;;;;;;;;;4952483;28;20031;-72
2022/09/16 13:46:14;;;;;;;12.70;1.95;;;;;;;;;;4952651;28;20035;-71
2022/09/16 13:48:47;;;;;;;12.82;2.20;;;;;;;;;;4952723;28;20051;-71
2022/09/16 13:51:17;;;;;;;10.20;2.05;;;;;;;;;;4952528;28;20036;-72
2022/09/16 13:53:45;;;;;;;13.25;1.63;;;;;;;;;;4953005;28;20472;-71
2022/09/16 13:56:22;;;;;;;9.48;1.50;;;;;;;;;;4953112;28;20452;-70
2022/09/16 13:58:51;;;;;;;15.77;2.20;;;;;;;;;;4953522;28;20035;-71
2022/09/16 14:01:40;;;;;;;11.65;1.50;;;;;;;;;;4954220;28;20059;-73
2022/09/16 14:04:06;;;;;;;15.52;2.58;;;;;;;;;;4962340;28;20051;-73
2022/09/16 14:06:51;;;;;;;14.73;1.80;;;;;;;;;;4936140;28;20085;-75
2022/09/16 14:09:36;;;;;;;15.65;2.42;;;;;;;;;;4954024;28;20033;-73
2022/09/16 14:12:04;;;;;;;20.95;2.78;;;;;;;;;;4955395;28;20341;-73
2022/09/16 14:14:32;;;;;;;19.52;2.95;;;;;;;;;;4963166;28;20036;-72
2022/09/16 14:17:00;;;;;;;17.17;2.45;;;;;;;;;;4963294;28;20050;-72
2022/09/16 14:19:28;;;;;;;18.88;2.40;;;;;;;;;;4956004;28;20053;-72
2022/09/16 14:22:00;;;;;;;18.20;2.20;;;;;;;;;;4965554;28;20067;-72
2022/09/16 14:24:33;;;;;;;13.85;2.38;;;;;;;;;;4944801;28;20042;-72
2022/09/16 14:26:59;;;;;;;11.52;1.90;;;;;;;;;;4953551;28;20027;-72
2022/09/16 14:29:28;;;;;;;14.50;2.08;;;;;;;;;;4952691;28;20038;-72
2022/09/16 14:31:55;;;;;;;10.80;2.03;;;;;;;;;;4952526;28;20357;-72
2022/09/16 14:34:36;;;;;;;15.57;1.92;;;;;;;;;;4953409;28;20034;-71
2022/09/16 14:37:03;;;;;;;14.10;2.22;;;;;;;;;;4952579;28;20034;-73
2022/09/16 14:39:29;;;;;;;14.57;2.67;;;;;;;;;;4952699;28;20106;-72
2022/09/16 14:42:02;;;;;;;8.32;1.50;;;;;;;;;;4952768;28;20027;-73
2022/09/16 14:44:31;;;;;;;16.95;2.20;;;;;;;;;;4952324;28;20037;-71
2022/09/16 14:47:03;;;;;;;14.10;2.33;;;;;;;;;;4951831;28;20046;-73
2022/09/16 14:49:29;;;;;;;14.88;1.90;;;;;;;;;;4951493;28;20034;-72